sensor_id;sensor_type;location;lat;lon;timestamp;P1;durP1;ratioP1;P2;durP2;ratioP2
50219;SDS011;36110;51.536;7.562;2023-06-04T00:00:50;1.02;;;1.02;;
50219;SDS011;36110;51.536;7.562;2023-06-04T00:03:16;1.15;;;0.90;;
50219;SDS011;36110;51.536;7.562;2023-06-04T00:05:41;0.93;;;0.93;;
50219;SDS011;36110;51.536;7.562;2023-06-04T00:08:06;0.90;;;0.90;;
50219;SDS011;36110;51.536;7.562;2023-06-04T00:10:32;1.88;;;0.90;;
50219;SDS011;36110;51.536;7.562;2023-06-04T00:12:58;1.00;;;1.00;;
50219;SDS011;36110;51.536;7.562;2023-06-04T00:15:24;0.90;;;0.90;;
50219;SDS011;36110;51.536;7.562;2023-06-04T00:17:49;0.85;;;0.85;;
50219;SDS011;36110;51.536;7.562;2023-06-04T00:20:15;1.00;;;1.00;;
50219;SDS011;36110;51.536;7.562;2023-06-04T00:22:40;0.98;;;0.98;;
50219;SDS011;36110;51.536;7.562;2023-06-04T00:25:07;0.90;;;0.90;;
50219;SDS011;36110;51.536;7.562;2023-06-04T00:27:33;1.17;;;1.08;;
50219;SDS011;36110;51.536;7.562;2023-06-04T00:29:58;0.90;;;0.90;;
50219;SDS011;36110;51.536;7.562;2023-06-04T00:32:24;0.90;;;0.90;;
50219;SDS011;36110;51.536;7.562;2023-06-04T00:34:53;1.08;;;1.00;;
50219;SDS011;36110;51.536;7.562;2023-06-04T00:37:20;1.00;;;1.00;;
50219;SDS011;36110;51.536;7.562;2023-06-04T00:39:47;1.00;;;1.00;;
50219;SDS011;36110;51.536;7.562;2023-06-04T00:42:12;1.00;;;1.00;;
50219;SDS011;36110;51.536;7.562;2023-06-04T00:44:38;0.93;;;0.93;;
50219;SDS011;36110;51.536;7.562;2023-06-04T00:47:09;1.10;;;1.00;;
50219;SDS011;36110;51.536;7.562;2023-06-04T00:49:37;0.90;;;0.90;;
50219;SDS011;36110;51.536;7.562;2023-06-04T00:52:03;0.88;;;0.88;;
50219;SDS011;36110;51.536;7.562;2023-06-04T00:54:29;0.93;;;0.93;;
50219;SDS011;36110;51.536;7.562;2023-06-04T00:56:55;1.00;;;0.90;;
50219;SDS011;36110;51.536;7.562;2023-06-04T00:59:21;0.95;;;0.95;;
50219;SDS011;36110;51.536;7.562;2023-06-04T01:01:51;0.90;;;0.90;;
50219;SDS011;36110;51.536;7.562;2023-06-04T01:07:29;1.15;;;1.10;;
50219;SDS011;36110;51.536;7.562;2023-06-04T01:09:55;0.98;;;0.88;;
50219;SDS011;36110;51.536;7.562;2023-06-04T01:12:20;0.80;;;0.80;;
50219;SDS011;36110;51.536;7.562;2023-06-04T01:14:46;0.90;;;0.90;;
50219;SDS011;36110;51.536;7.562;2023-06-04T01:20:11;0.93;;;0.93;;
50219;SDS011;36110;51.536;7.562;2023-06-04T01:25:43;0.98;;;0.98;;
50219;SDS011;36110;51.536;7.562;2023-06-04T01:28:10;0.98;;;0.88;;
50219;SDS011;36110;51.536;7.562;2023-06-04T01:30:42;1.10;;;1.00;;
50219;SDS011;36110;51.536;7.562;2023-06-04T01:33:10;1.10;;;1.10;;
50219;SDS011;36110;51.536;7.562;2023-06-04T01:35:36;1.02;;;1.00;;
50219;SDS011;36110;51.536;7.562;2023-06-04T01:38:02;1.10;;;1.00;;
50219;SDS011;36110;51.536;7.562;2023-06-04T01:40:28;0.85;;;0.85;;
50219;SDS011;36110;51.536;7.562;2023-06-04T01:42:53;1.42;;;1.00;;
50219;SDS011;36110;51.536;7.562;2023-06-04T01:45:20;0.95;;;0.90;;
50219;SDS011;36110;51.536;7.562;2023-06-04T01:47:49;1.00;;;1.00;;
50219;SDS011;36110;51.536;7.562;2023-06-04T01:50:15;1.20;;;1.10;;
50219;SDS011;36110;51.536;7.562;2023-06-04T01:52:40;1.33;;;1.23;;
50219;SDS011;36110;51.536;7.562;2023-06-04T01:55:06;1.08;;;1.08;;
50219;SDS011;36110;51.536;7.562;2023-06-04T01:57:33;0.90;;;0.90;;
50219;SDS011;36110;51.536;7.562;2023-06-04T02:00:00;1.15;;;1.10;;
50219;SDS011;36110;51.536;7.562;2023-06-04T02:02:25;0.90;;;0.90;;
50219;SDS011;36110;51.536;7.562;2023-06-04T02:04:51;1.27;;;1.17;;
50219;SDS011;36110;51.536;7.562;2023-06-04T02:07:17;1.10;;;1.10;;
50219;SDS011;36110;51.536;7.562;2023-06-04T02:09:45;1.10;;;1.00;;
50219;SDS011;36110;51.536;7.562;2023-06-04T02:12:11;1.02;;;0.93;;
50219;SDS011;36110;51.536;7.562;2023-06-04T02:14:36;0.98;;;0.98;;
50219;SDS011;36110;51.536;7.562;2023-06-04T02:17:03;1.00;;;1.00;;
50219;SDS011;36110;51.536;7.562;2023-06-04T02:19:29;1.50;;;1.00;;
50219;SDS011;36110;51.536;7.562;2023-06-04T02:21:55;1.30;;;1.20;;
50219;SDS011;36110;51.536;7.562;2023-06-04T02:24:20;1.30;;;1.20;;
50219;SDS011;36110;51.536;7.562;2023-06-04T02:26:46;2.05;;;0.98;;
50219;SDS011;36110;51.536;7.562;2023-06-04T02:29:11;0.90;;;0.90;;
50219;SDS011;36110;51.536;7.562;2023-06-04T02:31:37;1.20;;;1.10;;
50219;SDS011;36110;51.536;7.562;2023-06-04T02:34:02;1.05;;;1.00;;
50219;SDS011;36110;51.536;7.562;2023-06-04T02:36:28;1.15;;;1.10;;
50219;SDS011;36110;51.536;7.562;2023-06-04T02:38:54;1.50;;;1.17;;
50219;SDS011;36110;51.536;7.562;2023-06-04T02:41:20;1.10;;;1.10;;
50219;SDS011;36110;51.536;7.562;2023-06-04T02:43:46;1.05;;;1.00;;
50219;SDS011;36110;51.536;7.562;2023-06-04T02:46:11;1.17;;;1.08;;
50219;SDS011;36110;51.536;7.562;2023-06-04T02:48:36;1.17;;;1.10;;
50219;SDS011;36110;51.536;7.562;2023-06-04T02:51:02;1.00;;;0.90;;
50219;SDS011;36110;51.536;7.562;2023-06-04T02:53:27;0.88;;;0.88;;
50219;SDS011;36110;51.536;7.562;2023-06-04T02:55:52;1.23;;;1.13;;
50219;SDS011;36110;51.536;7.562;2023-06-04T02:58:18;1.25;;;1.15;;
50219;SDS011;36110;51.536;7.562;2023-06-04T03:00:44;1.00;;;1.00;;
50219;SDS011;36110;51.536;7.562;2023-06-04T03:03:09;1.15;;;1.00;;
50219;SDS011;36110;51.536;7.562;2023-06-04T03:05:35;2.45;;;1.15;;
50219;SDS011;36110;51.536;7.562;2023-06-04T03:08:01;0.95;;;0.93;;
50219;SDS011;36110;51.536;7.562;2023-06-04T03:10:28;2.92;;;1.00;;
50219;SDS011;36110;51.536;7.562;2023-06-04T03:12:54;1.02;;;1.02;;
50219;SDS011;36110;51.536;7.562;2023-06-04T03:15:19;1.00;;;1.00;;
50219;SDS011;36110;51.536;7.562;2023-06-04T03:17:45;0.95;;;0.90;;
50219;SDS011;36110;51.536;7.562;2023-06-04T03:20:10;1.15;;;1.10;;
50219;SDS011;36110;51.536;7.562;2023-06-04T03:22:36;1.25;;;1.05;;
50219;SDS011;36110;51.536;7.562;2023-06-04T03:25:02;1.20;;;1.10;;
50219;SDS011;36110;51.536;7.562;2023-06-04T03:27:28;0.90;;;0.90;;
50219;SDS011;36110;51.536;7.562;2023-06-04T03:29:53;1.27;;;1.20;;
50219;SDS011;36110;51.536;7.562;2023-06-04T03:32:18;0.95;;;0.95;;
50219;SDS011;36110;51.536;7.562;2023-06-04T03:34:44;1.00;;;1.00;;
50219;SDS011;36110;51.536;7.562;2023-06-04T03:37:09;1.00;;;1.00;;
50219;SDS011;36110;51.536;7.562;2023-06-04T03:39:34;1.35;;;1.25;;
50219;SDS011;36110;51.536;7.562;2023-06-04T03:42:00;1.38;;;0.98;;
50219;SDS011;36110;51.536;7.562;2023-06-04T03:44:25;1.05;;;1.00;;
50219;SDS011;36110;51.536;7.562;2023-06-04T03:46:50;0.98;;;0.98;;
50219;SDS011;36110;51.536;7.562;2023-06-04T03:49:16;0.80;;;0.80;;
50219;SDS011;36110;51.536;7.562;2023-06-04T03:51:42;1.08;;;1.00;;
50219;SDS011;36110;51.536;7.562;2023-06-04T03:54:07;1.50;;;1.40;;
50219;SDS011;36110;51.536;7.562;2023-06-04T03:56:33;0.98;;;0.98;;
50219;SDS011;36110;51.536;7.562;2023-06-04T03:58:58;1.00;;;1.00;;
50219;SDS011;36110;51.536;7.562;2023-06-04T04:01:24;0.90;;;0.90;;
50219;SDS011;36110;51.536;7.562;2023-06-04T04:03:50;1.10;;;1.00;;
50219;SDS011;36110;51.536;7.562;2023-06-04T04:06:16;1.23;;;1.13;;
50219;SDS011;36110;51.536;7.562;2023-06-04T04:08:41;1.27;;;1.17;;
50219;SDS011;36110;51.536;7.562;2023-06-04T04:11:13;1.20;;;1.10;;
50219;SDS011;36110;51.536;7.562;2023-06-04T04:13:39;1.27;;;1.10;;
50219;SDS011;36110;51.536;7.562;2023-06-04T04:16:05;1.27;;;1.20;;
50219;SDS011;36110;51.536;7.562;2023-06-04T04:18:34;1.20;;;1.13;;
50219;SDS011;36110;51.536;7.562;2023-06-04T04:21:00;1.00;;;1.00;;
50219;SDS011;36110;51.536;7.562;2023-06-04T04:23:26;1.00;;;1.00;;
50219;SDS011;36110;51.536;7.562;2023-06-04T04:25:52;1.10;;;1.00;;
50219;SDS011;36110;51.536;7.562;2023-06-04T04:28:18;1.45;;;1.10;;
50219;SDS011;36110;51.536;7.562;2023-06-04T04:30:44;1.30;;;1.20;;
50219;SDS011;36110;51.536;7.562;2023-06-04T04:33:09;1.10;;;1.10;;
50219;SDS011;36110;51.536;7.562;2023-06-04T04:35:35;1.10;;;1.10;;
50219;SDS011;36110;51.536;7.562;2023-06-04T04:38:01;1.08;;;1.08;;
50219;SDS011;36110;51.536;7.562;2023-06-04T04:40:30;1.08;;;1.08;;
50219;SDS011;36110;51.536;7.562;2023-06-04T04:42:55;1.27;;;1.10;;
50219;SDS011;36110;51.536;7.562;2023-06-04T04:45:21;1.15;;;1.15;;
50219;SDS011;36110;51.536;7.562;2023-06-04T04:47:46;1.17;;;1.08;;
50219;SDS011;36110;51.536;7.562;2023-06-04T04:50:12;0.82;;;0.82;;
50219;SDS011;36110;51.536;7.562;2023-06-04T04:52:38;1.35;;;1.25;;
50219;SDS011;36110;51.536;7.562;2023-06-04T04:55:03;1.27;;;1.17;;
50219;SDS011;36110;51.536;7.562;2023-06-04T04:57:29;2.00;;;1.00;;
50219;SDS011;36110;51.536;7.562;2023-06-04T04:59:54;1.05;;;1.05;;
50219;SDS011;36110;51.536;7.562;2023-06-04T05:02:19;1.23;;;1.13;;
50219;SDS011;36110;51.536;7.562;2023-06-04T05:04:45;1.35;;;1.25;;
50219;SDS011;36110;51.536;7.562;2023-06-04T05:07:11;0.80;;;0.80;;
50219;SDS011;36110;51.536;7.562;2023-06-04T05:09:37;3.65;;;2.33;;
50219;SDS011;36110;51.536;7.562;2023-06-04T05:12:02;1.73;;;1.50;;
50219;SDS011;36110;51.536;7.562;2023-06-04T05:14:28;2.67;;;1.77;;
50219;SDS011;36110;51.536;7.562;2023-06-04T05:16:53;4.68;;;2.72;;
50219;SDS011;36110;51.536;7.562;2023-06-04T05:19:22;1.20;;;1.10;;
50219;SDS011;36110;51.536;7.562;2023-06-04T05:21:49;2.22;;;2.03;;
50219;SDS011;36110;51.536;7.562;2023-06-04T05:24:14;1.00;;;1.00;;
50219;SDS011;36110;51.536;7.562;2023-06-04T05:26:40;1.42;;;1.33;;
50219;SDS011;36110;51.536;7.562;2023-06-04T05:29:05;4.25;;;2.55;;
50219;SDS011;36110;51.536;7.562;2023-06-04T05:31:31;1.17;;;1.08;;
50219;SDS011;36110;51.536;7.562;2023-06-04T05:33:58;1.38;;;1.27;;
50219;SDS011;36110;51.536;7.562;2023-06-04T05:36:27;4.65;;;2.90;;
50219;SDS011;36110;51.536;7.562;2023-06-04T05:38:54;1.90;;;1.73;;
50219;SDS011;36110;51.536;7.562;2023-06-04T05:41:23;1.20;;;1.10;;
50219;SDS011;36110;51.536;7.562;2023-06-04T05:43:49;1.13;;;1.13;;
50219;SDS011;36110;51.536;7.562;2023-06-04T05:46:14;1.05;;;1.05;;
50219;SDS011;36110;51.536;7.562;2023-06-04T05:48:40;1.27;;;1.00;;
50219;SDS011;36110;51.536;7.562;2023-06-04T05:51:05;2.63;;;1.63;;
50219;SDS011;36110;51.536;7.562;2023-06-04T05:53:31;3.67;;;2.83;;
50219;SDS011;36110;51.536;7.562;2023-06-04T05:55:57;1.20;;;1.10;;
50219;SDS011;36110;51.536;7.562;2023-06-04T05:58:22;1.10;;;1.00;;
50219;SDS011;36110;51.536;7.562;2023-06-04T06:00:48;1.00;;;1.00;;
50219;SDS011;36110;51.536;7.562;2023-06-04T06:03:15;1.17;;;1.08;;
50219;SDS011;36110;51.536;7.562;2023-06-04T06:05:41;1.20;;;1.20;;
50219;SDS011;36110;51.536;7.562;2023-06-04T06:08:06;3.10;;;2.80;;
50219;SDS011;36110;51.536;7.562;2023-06-04T06:10:32;4.13;;;3.00;;
50219;SDS011;36110;51.536;7.562;2023-06-04T06:12:57;1.15;;;1.00;;
50219;SDS011;36110;51.536;7.562;2023-06-04T06:15:22;3.88;;;2.80;;
50219;SDS011;36110;51.536;7.562;2023-06-04T06:17:48;1.65;;;1.55;;
50219;SDS011;36110;51.536;7.562;2023-06-04T06:20:14;1.77;;;1.65;;
50219;SDS011;36110;51.536;7.562;2023-06-04T06:22:42;1.08;;;1.00;;
50219;SDS011;36110;51.536;7.562;2023-06-04T06:25:08;0.98;;;0.98;;
50219;SDS011;36110;51.536;7.562;2023-06-04T06:27:33;3.67;;;2.30;;
50219;SDS011;36110;51.536;7.562;2023-06-04T06:29:58;1.05;;;0.98;;
50219;SDS011;36110;51.536;7.562;2023-06-04T06:32:24;1.50;;;1.40;;
50219;SDS011;36110;51.536;7.562;2023-06-04T06:34:49;3.30;;;2.28;;
50219;SDS011;36110;51.536;7.562;2023-06-04T06:37:14;2.45;;;1.90;;
50219;SDS011;36110;51.536;7.562;2023-06-04T06:39:40;6.15;;;3.10;;
50219;SDS011;36110;51.536;7.562;2023-06-04T06:42:05;4.13;;;2.75;;
50219;SDS011;36110;51.536;7.562;2023-06-04T06:44:31;3.90;;;2.72;;
50219;SDS011;36110;51.536;7.562;2023-06-04T06:46:56;1.23;;;1.00;;
50219;SDS011;36110;51.536;7.562;2023-06-04T06:49:21;2.53;;;2.28;;
50219;SDS011;36110;51.536;7.562;2023-06-04T06:51:47;4.20;;;2.50;;
50219;SDS011;36110;51.536;7.562;2023-06-04T06:54:14;4.78;;;2.70;;
50219;SDS011;36110;51.536;7.562;2023-06-04T06:56:40;4.05;;;2.38;;
50219;SDS011;36110;51.536;7.562;2023-06-04T06:59:06;2.97;;;2.38;;
50219;SDS011;36110;51.536;7.562;2023-06-04T07:01:31;3.83;;;2.75;;
50219;SDS011;36110;51.536;7.562;2023-06-04T07:03:58;2.25;;;2.00;;
50219;SDS011;36110;51.536;7.562;2023-06-04T07:06:23;2.55;;;1.80;;
50219;SDS011;36110;51.536;7.562;2023-06-04T07:08:49;1.25;;;1.10;;
50219;SDS011;36110;51.536;7.562;2023-06-04T07:11:14;6.32;;;2.83;;
50219;SDS011;36110;51.536;7.562;2023-06-04T07:13:41;4.85;;;2.80;;
50219;SDS011;36110;51.536;7.562;2023-06-04T07:16:07;4.70;;;2.38;;
50219;SDS011;36110;51.536;7.562;2023-06-04T07:18:32;1.70;;;1.60;;
50219;SDS011;36110;51.536;7.562;2023-06-04T07:20:58;2.80;;;2.47;;
50219;SDS011;36110;51.536;7.562;2023-06-04T07:23:23;1.23;;;1.15;;
50219;SDS011;36110;51.536;7.562;2023-06-04T07:25:49;2.60;;;1.92;;
50219;SDS011;36110;51.536;7.562;2023-06-04T07:28:14;0.88;;;0.88;;
50219;SDS011;36110;51.536;7.562;2023-06-04T07:30:40;2.17;;;1.98;;
50219;SDS011;36110;51.536;7.562;2023-06-04T07:33:05;2.78;;;2.20;;
50219;SDS011;36110;51.536;7.562;2023-06-04T07:35:31;1.70;;;1.15;;
50219;SDS011;36110;51.536;7.562;2023-06-04T07:37:56;4.70;;;2.50;;
50219;SDS011;36110;51.536;7.562;2023-06-04T07:40:22;1.02;;;1.00;;
50219;SDS011;36110;51.536;7.562;2023-06-04T07:42:47;3.75;;;1.90;;
50219;SDS011;36110;51.536;7.562;2023-06-04T07:45:15;1.00;;;1.00;;
50219;SDS011;36110;51.536;7.562;2023-06-04T07:47:41;5.88;;;2.30;;
50219;SDS011;36110;51.536;7.562;2023-06-04T07:50:07;2.40;;;2.20;;
50219;SDS011;36110;51.536;7.562;2023-06-04T07:52:33;3.08;;;2.15;;
50219;SDS011;36110;51.536;7.562;2023-06-04T07:54:59;3.00;;;2.50;;
50219;SDS011;36110;51.536;7.562;2023-06-04T07:57:24;4.13;;;2.30;;
50219;SDS011;36110;51.536;7.562;2023-06-04T07:59:49;4.10;;;2.20;;
50219;SDS011;36110;51.536;7.562;2023-06-04T08:02:15;3.15;;;2.00;;
50219;SDS011;36110;51.536;7.562;2023-06-04T08:04:41;5.75;;;1.98;;
50219;SDS011;36110;51.536;7.562;2023-06-04T08:07:06;3.05;;;1.70;;
50219;SDS011;36110;51.536;7.562;2023-06-04T08:09:31;2.42;;;2.17;;
50219;SDS011;36110;51.536;7.562;2023-06-04T08:11:57;3.83;;;1.80;;
50219;SDS011;36110;51.536;7.562;2023-06-04T08:14:23;1.50;;;1.40;;
50219;SDS011;36110;51.536;7.562;2023-06-04T08:16:51;2.95;;;2.22;;
50219;SDS011;36110;51.536;7.562;2023-06-04T08:19:17;1.77;;;1.55;;
50219;SDS011;36110;51.536;7.562;2023-06-04T08:21:42;2.00;;;1.83;;
50219;SDS011;36110;51.536;7.562;2023-06-04T08:24:08;3.08;;;1.23;;
50219;SDS011;36110;51.536;7.562;2023-06-04T08:26:34;5.10;;;2.05;;
50219;SDS011;36110;51.536;7.562;2023-06-04T08:29:02;3.78;;;2.42;;
50219;SDS011;36110;51.536;7.562;2023-06-04T08:31:28;2.45;;;1.90;;
50219;SDS011;36110;51.536;7.562;2023-06-04T08:33:54;4.63;;;1.70;;
50219;SDS011;36110;51.536;7.562;2023-06-04T08:36:19;3.92;;;1.83;;
50219;SDS011;36110;51.536;7.562;2023-06-04T08:38:45;4.70;;;2.45;;
50219;SDS011;36110;51.536;7.562;2023-06-04T08:41:54;1.88;;;1.33;;
50219;SDS011;36110;51.536;7.562;2023-06-04T08:44:00;6.82;;;2.47;;
50219;SDS011;36110;51.536;7.562;2023-06-04T08:46:27;5.18;;;2.78;;
50219;SDS011;36110;51.536;7.562;2023-06-04T08:48:53;3.72;;;2.38;;
50219;SDS011;36110;51.536;7.562;2023-06-04T08:51:20;3.55;;;2.30;;
50219;SDS011;36110;51.536;7.562;2023-06-04T08:53:46;3.03;;;1.85;;
50219;SDS011;36110;51.536;7.562;2023-06-04T08:56:15;1.50;;;1.40;;
50219;SDS011;36110;51.536;7.562;2023-06-04T08:58:42;3.35;;;2.20;;
50219;SDS011;36110;51.536;7.562;2023-06-04T09:01:08;4.93;;;2.58;;
50219;SDS011;36110;51.536;7.562;2023-06-04T09:03:34;3.88;;;2.38;;
50219;SDS011;36110;51.536;7.562;2023-06-04T09:06:02;4.47;;;2.50;;
50219;SDS011;36110;51.536;7.562;2023-06-04T09:08:29;6.25;;;2.40;;
50219;SDS011;36110;51.536;7.562;2023-06-04T09:10:56;3.63;;;2.35;;
50219;SDS011;36110;51.536;7.562;2023-06-04T09:13:22;4.75;;;2.70;;
50219;SDS011;36110;51.536;7.562;2023-06-04T09:15:59;4.10;;;2.60;;
50219;SDS011;36110;51.536;7.562;2023-06-04T09:18:27;3.67;;;2.80;;
50219;SDS011;36110;51.536;7.562;2023-06-04T09:21:03;6.07;;;2.58;;
50219;SDS011;36110;51.536;7.562;2023-06-04T09:23:36;4.35;;;3.10;;
50219;SDS011;36110;51.536;7.562;2023-06-04T09:26:09;5.82;;;3.30;;
50219;SDS011;36110;51.536;7.562;2023-06-04T09:28:35;5.13;;;2.58;;
50219;SDS011;36110;51.536;7.562;2023-06-04T09:31:01;4.03;;;2.80;;
50219;SDS011;36110;51.536;7.562;2023-06-04T09:33:30;3.72;;;2.50;;
50219;SDS011;36110;51.536;7.562;2023-06-04T09:36:07;5.53;;;2.75;;
50219;SDS011;36110;51.536;7.562;2023-06-04T09:38:33;3.38;;;2.70;;
50219;SDS011;36110;51.536;7.562;2023-06-04T09:40:59;9.18;;;3.05;;
50219;SDS011;36110;51.536;7.562;2023-06-04T09:43:25;6.75;;;3.13;;
50219;SDS011;36110;51.536;7.562;2023-06-04T09:45:51;2.40;;;2.20;;
50219;SDS011;36110;51.536;7.562;2023-06-04T09:48:21;5.70;;;2.95;;
50219;SDS011;36110;51.536;7.562;2023-06-04T09:50:46;2.85;;;2.65;;
50219;SDS011;36110;51.536;7.562;2023-06-04T09:53:13;3.42;;;2.88;;
50219;SDS011;36110;51.536;7.562;2023-06-04T09:55:42;9.18;;;3.03;;
50219;SDS011;36110;51.536;7.562;2023-06-04T09:58:08;6.10;;;3.10;;
50219;SDS011;36110;51.536;7.562;2023-06-04T10:00:36;3.42;;;2.50;;
50219;SDS011;36110;51.536;7.562;2023-06-04T10:03:02;9.07;;;2.83;;
50219;SDS011;36110;51.536;7.562;2023-06-04T10:05:29;2.22;;;2.03;;
50219;SDS011;36110;51.536;7.562;2023-06-04T10:07:57;5.45;;;3.22;;
50219;SDS011;36110;51.536;7.562;2023-06-04T10:10:25;4.32;;;2.42;;
50219;SDS011;36110;51.536;7.562;2023-06-04T10:13:01;4.63;;;2.83;;
50219;SDS011;36110;51.536;7.562;2023-06-04T10:15:30;4.03;;;2.40;;
50219;SDS011;36110;51.536;7.562;2023-06-04T10:17:57;3.95;;;2.80;;
50219;SDS011;36110;51.536;7.562;2023-06-04T10:20:23;2.35;;;2.00;;
50219;SDS011;36110;51.536;7.562;2023-06-04T10:22:48;2.50;;;2.30;;
50219;SDS011;36110;51.536;7.562;2023-06-04T10:25:15;4.10;;;2.25;;
50219;SDS011;36110;51.536;7.562;2023-06-04T10:27:40;11.52;;;2.17;;
50219;SDS011;36110;51.536;7.562;2023-06-04T10:30:06;3.72;;;2.13;;
50219;SDS011;36110;51.536;7.562;2023-06-04T10:32:32;3.97;;;2.00;;
50219;SDS011;36110;51.536;7.562;2023-06-04T10:34:59;3.35;;;2.05;;
50219;SDS011;36110;51.536;7.562;2023-06-04T10:37:29;3.25;;;2.15;;
50219;SDS011;36110;51.536;7.562;2023-06-04T10:39:55;2.70;;;1.90;;
50219;SDS011;36110;51.536;7.562;2023-06-04T10:42:22;7.13;;;2.08;;
50219;SDS011;36110;51.536;7.562;2023-06-04T10:44:48;5.57;;;2.08;;
50219;SDS011;36110;51.536;7.562;2023-06-04T10:52:18;5.25;;;2.03;;
50219;SDS011;36110;51.536;7.562;2023-06-04T10:54:45;3.65;;;1.67;;
50219;SDS011;36110;51.536;7.562;2023-06-04T10:57:12;4.95;;;2.00;;
50219;SDS011;36110;51.536;7.562;2023-06-04T10:59:38;5.30;;;2.22;;
50219;SDS011;36110;51.536;7.562;2023-06-04T11:02:04;1.83;;;1.73;;
50219;SDS011;36110;51.536;7.562;2023-06-04T11:04:30;2.50;;;1.80;;
50219;SDS011;36110;51.536;7.562;2023-06-04T11:07:00;6.65;;;2.20;;
50219;SDS011;36110;51.536;7.562;2023-06-04T11:09:27;3.28;;;1.90;;
50219;SDS011;36110;51.536;7.562;2023-06-04T11:11:58;3.33;;;1.95;;
50219;SDS011;36110;51.536;7.562;2023-06-04T11:14:24;2.40;;;2.00;;
50219;SDS011;36110;51.536;7.562;2023-06-04T11:16:49;3.17;;;2.00;;
50219;SDS011;36110;51.536;7.562;2023-06-04T11:19:15;3.08;;;1.60;;
50219;SDS011;36110;51.536;7.562;2023-06-04T11:21:40;2.22;;;1.98;;
50219;SDS011;36110;51.536;7.562;2023-06-04T11:24:06;2.60;;;1.70;;
50219;SDS011;36110;51.536;7.562;2023-06-04T11:26:31;3.95;;;2.00;;
50219;SDS011;36110;51.536;7.562;2023-06-04T11:28:58;2.30;;;1.70;;
50219;SDS011;36110;51.536;7.562;2023-06-04T11:31:23;5.78;;;2.00;;
50219;SDS011;36110;51.536;7.562;2023-06-04T11:33:49;4.82;;;2.22;;
50219;SDS011;36110;51.536;7.562;2023-06-04T11:36:27;2.83;;;1.80;;
50219;SDS011;36110;51.536;7.562;2023-06-04T11:38:54;6.40;;;2.22;;
50219;SDS011;36110;51.536;7.562;2023-06-04T11:41:20;5.28;;;2.22;;
50219;SDS011;36110;51.536;7.562;2023-06-04T11:43:49;3.42;;;1.80;;
50219;SDS011;36110;51.536;7.562;2023-06-04T11:46:14;3.35;;;1.80;;
50219;SDS011;36110;51.536;7.562;2023-06-04T11:48:40;9.65;;;2.00;;
50219;SDS011;36110;51.536;7.562;2023-06-04T11:51:08;4.18;;;1.90;;
50219;SDS011;36110;51.536;7.562;2023-06-04T11:53:35;3.70;;;1.88;;
50219;SDS011;36110;51.536;7.562;2023-06-04T11:56:01;5.93;;;2.00;;
50219;SDS011;36110;51.536;7.562;2023-06-04T11:58:27;2.40;;;1.70;;
50219;SDS011;36110;51.536;7.562;2023-06-04T12:00:52;3.47;;;1.98;;
50219;SDS011;36110;51.536;7.562;2023-06-04T12:03:18;3.58;;;1.90;;
50219;SDS011;36110;51.536;7.562;2023-06-04T12:05:43;5.75;;;1.88;;
50219;SDS011;36110;51.536;7.562;2023-06-04T12:08:09;4.68;;;1.90;;
50219;SDS011;36110;51.536;7.562;2023-06-04T12:10:39;4.20;;;2.10;;
50219;SDS011;36110;51.536;7.562;2023-06-04T12:13:05;3.92;;;1.90;;
50219;SDS011;36110;51.536;7.562;2023-06-04T12:15:30;2.67;;;2.03;;
50219;SDS011;36110;51.536;7.562;2023-06-04T12:17:56;2.63;;;1.60;;
50219;SDS011;36110;51.536;7.562;2023-06-04T12:20:37;2.53;;;1.60;;
50219;SDS011;36110;51.536;7.562;2023-06-04T12:23:04;4.10;;;2.10;;
50219;SDS011;36110;51.536;7.562;2023-06-04T12:25:31;3.25;;;1.80;;
50219;SDS011;36110;51.536;7.562;2023-06-04T12:27:57;2.03;;;1.42;;
50219;SDS011;36110;51.536;7.562;2023-06-04T12:30:22;3.38;;;1.92;;
50219;SDS011;36110;51.536;7.562;2023-06-04T12:32:48;4.53;;;1.80;;
50219;SDS011;36110;51.536;7.562;2023-06-04T12:35:14;5.65;;;1.77;;
50219;SDS011;36110;51.536;7.562;2023-06-04T12:37:41;2.42;;;1.70;;
50219;SDS011;36110;51.536;7.562;2023-06-04T12:40:06;2.33;;;1.70;;
50219;SDS011;36110;51.536;7.562;2023-06-04T12:42:32;2.10;;;1.70;;
50219;SDS011;36110;51.536;7.562;2023-06-04T12:44:57;4.07;;;2.13;;
50219;SDS011;36110;51.536;7.562;2023-06-04T12:47:22;2.17;;;1.58;;
50219;SDS011;36110;51.536;7.562;2023-06-04T12:49:48;3.45;;;1.83;;
50219;SDS011;36110;51.536;7.562;2023-06-04T12:52:13;1.85;;;1.75;;
50219;SDS011;36110;51.536;7.562;2023-06-04T12:54:39;3.45;;;1.80;;
50219;SDS011;36110;51.536;7.562;2023-06-04T12:57:05;4.25;;;1.80;;
50219;SDS011;36110;51.536;7.562;2023-06-04T12:59:30;4.47;;;1.60;;
50219;SDS011;36110;51.536;7.562;2023-06-04T13:01:56;3.03;;;1.90;;
50219;SDS011;36110;51.536;7.562;2023-06-04T13:04:21;3.35;;;1.88;;
50219;SDS011;36110;51.536;7.562;2023-06-04T13:06:48;3.03;;;1.70;;
50219;SDS011;36110;51.536;7.562;2023-06-04T13:09:14;5.75;;;1.70;;
50219;SDS011;36110;51.536;7.562;2023-06-04T13:11:40;2.35;;;1.98;;
50219;SDS011;36110;51.536;7.562;2023-06-04T13:14:07;2.05;;;1.75;;
50219;SDS011;36110;51.536;7.562;2023-06-04T13:16:33;3.05;;;1.60;;
50219;SDS011;36110;51.536;7.562;2023-06-04T13:18:58;2.25;;;1.60;;
50219;SDS011;36110;51.536;7.562;2023-06-04T13:21:23;2.05;;;1.45;;
50219;SDS011;36110;51.536;7.562;2023-06-04T13:23:49;1.60;;;1.50;;
50219;SDS011;36110;51.536;7.562;2023-06-04T13:26:15;1.90;;;1.80;;
50219;SDS011;36110;51.536;7.562;2023-06-04T13:28:41;5.28;;;1.67;;
50219;SDS011;36110;51.536;7.562;2023-06-04T13:31:06;2.67;;;1.83;;
50219;SDS011;36110;51.536;7.562;2023-06-04T13:33:32;5.13;;;1.90;;
50219;SDS011;36110;51.536;7.562;2023-06-04T13:35:59;1.63;;;1.50;;
50219;SDS011;36110;51.536;7.562;2023-06-04T13:38:25;3.60;;;1.80;;
50219;SDS011;36110;51.536;7.562;2023-06-04T13:40:50;5.22;;;2.15;;
50219;SDS011;36110;51.536;7.562;2023-06-04T13:43:16;3.67;;;2.30;;
50219;SDS011;36110;51.536;7.562;2023-06-04T13:45:41;1.58;;;1.30;;
50219;SDS011;36110;51.536;7.562;2023-06-04T13:48:09;4.45;;;1.80;;
50219;SDS011;36110;51.536;7.562;2023-06-04T13:50:34;1.95;;;1.70;;
50219;SDS011;36110;51.536;7.562;2023-06-04T13:53:00;4.65;;;1.88;;
50219;SDS011;36110;51.536;7.562;2023-06-04T13:55:25;1.83;;;1.52;;
50219;SDS011;36110;51.536;7.562;2023-06-04T13:57:51;3.63;;;1.67;;
50219;SDS011;36110;51.536;7.562;2023-06-04T14:00:16;1.48;;;1.38;;
50219;SDS011;36110;51.536;7.562;2023-06-04T14:02:41;5.80;;;2.15;;
50219;SDS011;36110;51.536;7.562;2023-06-04T14:05:07;2.83;;;1.73;;
50219;SDS011;36110;51.536;7.562;2023-06-04T14:07:33;3.03;;;2.05;;
50219;SDS011;36110;51.536;7.562;2023-06-04T14:09:58;4.97;;;2.20;;
50219;SDS011;36110;51.536;7.562;2023-06-04T14:12:24;1.95;;;1.67;;
50219;SDS011;36110;51.536;7.562;2023-06-04T14:14:50;4.22;;;1.60;;
50219;SDS011;36110;51.536;7.562;2023-06-04T14:17:15;1.33;;;1.23;;
50219;SDS011;36110;51.536;7.562;2023-06-04T14:19:41;3.17;;;1.95;;
50219;SDS011;36110;51.536;7.562;2023-06-04T14:22:06;2.50;;;2.00;;
50219;SDS011;36110;51.536;7.562;2023-06-04T14:24:32;4.97;;;2.20;;
50219;SDS011;36110;51.536;7.562;2023-06-04T14:26:58;4.45;;;2.33;;
50219;SDS011;36110;51.536;7.562;2023-06-04T14:29:23;3.05;;;2.25;;
50219;SDS011;36110;51.536;7.562;2023-06-04T14:31:49;3.85;;;2.40;;
50219;SDS011;36110;51.536;7.562;2023-06-04T14:34:14;6.80;;;2.00;;
50219;SDS011;36110;51.536;7.562;2023-06-04T14:36:39;3.53;;;2.58;;
50219;SDS011;36110;51.536;7.562;2023-06-04T14:39:05;1.90;;;1.75;;
50219;SDS011;36110;51.536;7.562;2023-06-04T14:41:30;4.03;;;1.83;;
50219;SDS011;36110;51.536;7.562;2023-06-04T14:43:55;1.67;;;1.58;;
50219;SDS011;36110;51.536;7.562;2023-06-04T14:46:21;2.22;;;1.98;;
50219;SDS011;36110;51.536;7.562;2023-06-04T14:48:46;7.43;;;2.30;;
50219;SDS011;36110;51.536;7.562;2023-06-04T14:51:11;3.22;;;1.70;;
50219;SDS011;36110;51.536;7.562;2023-06-04T14:53:37;1.50;;;1.40;;
50219;SDS011;36110;51.536;7.562;2023-06-04T14:56:05;2.85;;;2.35;;